Time;durP1;ratioP1;P1;durP2;ratioP2;P2;SDS_P1;SDS_P2;PMS_P1;PMS_P2;Temp;Humidity;BMP_temperature;BMP_pressure;BME280_temperature;BME280_humidity;BME280_pressure;Samples;Min_cycle;Max_cycle;Signal;HPM_P1;HPM_P2
2023/09/26 00:00:24;;;;;;;2.42;1.45;;;;;;;;;;7307823;19;141038;-75
2023/09/26 00:02:53;;;;;;;2.20;1.50;;;;;;;;;;7297239;19;141209;-76
2023/09/26 00:05:23;;;;;;;3.33;1.67;;;;;;;;;;7302404;19;141317;-77
2023/09/26 00:07:51;;;;;;;2.13;1.38;;;;;;;;;;7304725;19;140906;-76
2023/09/26 00:10:19;;;;;;;1.45;1.30;;;;;;;;;;7305245;19;141227;-77
2023/09/26 00:12:47;;;;;;;1.30;1.20;;;;;;;;;;7306203;19;142995;-77
2023/09/26 00:15:15;;;;;;;1.17;1.00;;;;;;;;;;7307177;19;140482;-77
2023/09/26 00:17:43;;;;;;;1.30;1.00;;;;;;;;;;7306532;19;140626;-76
2023/09/26 00:20:15;;;;;;;1.52;1.13;;;;;;;;;;7306160;19;143879;-77
2023/09/26 00:22:42;;;;;;;1.23;0.90;;;;;;;;;;7306419;19;142472;-76
2023/09/26 00:25:10;;;;;;;1.88;1.15;;;;;;;;;;7306085;19;141856;-77
2023/09/26 00:27:38;;;;;;;1.55;1.10;;;;;;;;;;7305860;19;140576;-76
2023/09/26 00:30:07;;;;;;;1.52;1.30;;;;;;;;;;7305128;19;143168;-76
2023/09/26 00:32:35;;;;;;;1.10;1.00;;;;;;;;;;7305657;19;140768;-77
2023/09/26 00:35:02;;;;;;;1.40;1.05;;;;;;;;;;7305891;19;140487;-77
2023/09/26 00:37:29;;;;;;;1.73;1.30;;;;;;;;;;7305741;19;140714;-76
2023/09/26 00:39:56;;;;;;;2.47;1.17;;;;;;;;;;7305356;19;141937;-77
2023/09/26 00:42:24;;;;;;;1.70;1.30;;;;;;;;;;7305480;19;142149;-77
2023/09/26 00:44:51;;;;;;;1.30;1.20;;;;;;;;;;7306518;19;140631;-76
2023/09/26 00:47:18;;;;;;;1.27;1.10;;;;;;;;;;7306731;19;140877;-76
2023/09/26 00:49:45;;;;;;;1.92;1.15;;;;;;;;;;7307765;19;141539;-77
2023/09/26 00:52:12;;;;;;;1.70;1.13;;;;;;;;;;7308958;19;143520;-77
2023/09/26 00:54:39;;;;;;;1.30;1.20;;;;;;;;;;7324863;19;140609;-77
2023/09/26 00:57:06;;;;;;;2.58;1.23;;;;;;;;;;7337422;19;139636;-77
2023/09/26 00:59:33;;;;;;;1.60;1.20;;;;;;;;;;7340806;19;140314;-76
2023/09/26 01:02:01;;;;;;;1.58;1.10;;;;;;;;;;7335992;19;141060;-74
2023/09/26 01:04:28;;;;;;;1.08;0.98;;;;;;;;;;7335690;19;139308;-77
2023/09/26 01:06:55;;;;;;;1.98;1.20;;;;;;;;;;7335503;19;140221;-76
2023/09/26 01:09:23;;;;;;;1.33;1.23;;;;;;;;;;7334523;19;140073;-78
2023/09/26 01:11:50;;;;;;;1.45;1.10;;;;;;;;;;7333577;19;140862;-76
2023/09/26 01:14:17;;;;;;;1.73;1.20;;;;;;;;;;7310902;19;140607;-76
2023/09/26 01:16:44;;;;;;;1.30;1.08;;;;;;;;;;7303521;19;140741;-76
2023/09/26 01:19:11;;;;;;;1.75;1.10;;;;;;;;;;7302727;19;141050;-76
2023/09/26 01:21:39;;;;;;;1.30;1.10;;;;;;;;;;7302496;19;141899;-76
2023/09/26 01:24:06;;;;;;;1.20;1.10;;;;;;;;;;7304032;19;140524;-75
2023/09/26 01:26:36;;;;;;;1.08;0.98;;;;;;;;;;7302368;19;140834;-76
2023/09/26 01:29:04;;;;;;;1.60;1.27;;;;;;;;;;7302799;19;142558;-76
2023/09/26 01:31:33;;;;;;;1.08;0.90;;;;;;;;;;7302877;19;141048;-77
2023/09/26 01:34:00;;;;;;;1.38;1.10;;;;;;;;;;7302155;19;140552;-77
2023/09/26 01:36:28;;;;;;;1.55;1.25;;;;;;;;;;7302954;19;140571;-76
2023/09/26 01:38:55;;;;;;;1.25;1.10;;;;;;;;;;7303351;19;141058;-77
2023/09/26 01:41:22;;;;;;;1.60;1.23;;;;;;;;;;7302179;19;142413;-76
2023/09/26 01:43:50;;;;;;;1.70;1.13;;;;;;;;;;7302582;19;140698;-76
2023/09/26 01:46:18;;;;;;;1.20;1.10;;;;;;;;;;7302487;19;140699;-76
2023/09/26 01:48:46;;;;;;;1.38;1.10;;;;;;;;;;7301717;19;141034;-76
2023/09/26 01:51:13;;;;;;;1.25;1.10;;;;;;;;;;7301549;19;142168;-75
2023/09/26 01:53:40;;;;;;;1.38;1.05;;;;;;;;;;7293376;19;142388;-77
2023/09/26 01:56:08;;;;;;;1.42;1.30;;;;;;;;;;7302555;19;140555;-77
2023/09/26 01:58:35;;;;;;;1.88;1.15;;;;;;;;;;7302110;19;141613;-77
2023/09/26 02:01:02;;;;;;;1.40;0.80;;;;;;;;;;7302001;19;142412;-77
2023/09/26 02:03:29;;;;;;;1.05;1.00;;;;;;;;;;7302490;19;140447;-77
2023/09/26 02:05:57;;;;;;;0.98;0.90;;;;;;;;;;7301145;19;140496;-77
2023/09/26 02:08:26;;;;;;;1.10;1.00;;;;;;;;;;7302253;19;140518;-77
2023/09/26 02:10:53;;;;;;;1.00;0.90;;;;;;;;;;7299924;19;141155;-76
2023/09/26 02:13:20;;;;;;;1.70;1.00;;;;;;;;;;7301856;19;140643;-77
2023/09/26 02:15:48;;;;;;;1.38;1.10;;;;;;;;;;7300890;19;140517;-77
2023/09/26 02:18:15;;;;;;;0.90;0.80;;;;;;;;;;7302241;19;140548;-76
2023/09/26 02:20:42;;;;;;;1.38;1.00;;;;;;;;;;7301836;19;142122;-76
2023/09/26 02:23:10;;;;;;;1.23;1.10;;;;;;;;;;7301537;19;140643;-77
2023/09/26 02:25:38;;;;;;;1.00;0.90;;;;;;;;;;7301999;19;140643;-77
2023/09/26 02:28:05;;;;;;;1.88;1.30;;;;;;;;;;7299743;19;141226;-76
2023/09/26 02:30:33;;;;;;;1.02;1.00;;;;;;;;;;7300585;19;141274;-77
2023/09/26 02:33:00;;;;;;;0.98;0.88;;;;;;;;;;7301927;19;140826;-78
2023/09/26 02:35:27;;;;;;;1.00;0.90;;;;;;;;;;7300961;19;141507;-77
2023/09/26 02:37:55;;;;;;;1.23;1.13;;;;;;;;;;7299176;19;141088;-77
2023/09/26 02:40:22;;;;;;;1.02;0.90;;;;;;;;;;7301766;19;142020;-77
2023/09/26 02:42:50;;;;;;;1.50;1.17;;;;;;;;;;7298560;19;140702;-77
2023/09/26 02:45:17;;;;;;;1.48;1.10;;;;;;;;;;7299888;19;140504;-76
2023/09/26 02:47:44;;;;;;;1.27;1.00;;;;;;;;;;7301269;19;141358;-75
2023/09/26 02:50:12;;;;;;;1.30;1.20;;;;;;;;;;7298653;19;141270;-74
2023/09/26 02:52:43;;;;;;;1.33;0.90;;;;;;;;;;7301138;19;140489;-77
2023/09/26 02:55:10;;;;;;;1.35;1.13;;;;;;;;;;7301136;19;140627;-76
2023/09/26 02:57:38;;;;;;;1.73;1.10;;;;;;;;;;7298825;19;141091;-76
2023/09/26 03:00:13;;;;;;;1.23;1.10;;;;;;;;;;7299563;19;142825;-77
2023/09/26 03:02:41;;;;;;;1.17;1.05;;;;;;;;;;7301083;19;140454;-77
2023/09/26 03:05:09;;;;;;;1.05;1.00;;;;;;;;;;7300124;19;140546;-77
2023/09/26 03:07:37;;;;;;;1.08;0.98;;;;;;;;;;7300523;19;140406;-76
2023/09/26 03:10:05;;;;;;;2.00;0.93;;;;;;;;;;7298559;19;142605;-75
2023/09/26 03:12:32;;;;;;;1.00;0.85;;;;;;;;;;7298701;19;140636;-76
2023/09/26 03:14:59;;;;;;;1.38;0.90;;;;;;;;;;7300579;19;140381;-77
2023/09/26 03:17:26;;;;;;;1.38;0.98;;;;;;;;;;7304138;19;141042;-77
2023/09/26 03:19:53;;;;;;;1.13;1.00;;;;;;;;;;7306812;19;141301;-77
2023/09/26 03:22:20;;;;;;;1.50;1.10;;;;;;;;;;7307936;19;140780;-76
2023/09/26 03:24:47;;;;;;;1.25;1.00;;;;;;;;;;7305692;19;141220;-76
2023/09/26 03:27:14;;;;;;;1.17;1.08;;;;;;;;;;7304823;19;140964;-77
2023/09/26 03:29:41;;;;;;;1.10;0.85;;;;;;;;;;7307479;19;141847;-77
2023/09/26 03:32:09;;;;;;;1.13;1.00;;;;;;;;;;7306271;19;140589;-77
2023/09/26 03:34:36;;;;;;;1.13;1.02;;;;;;;;;;7307087;19;140697;-77
2023/09/26 03:37:03;;;;;;;1.20;1.02;;;;;;;;;;7307320;19;140561;-77
2023/09/26 03:39:30;;;;;;;1.27;0.85;;;;;;;;;;7306397;19;140935;-78
2023/09/26 03:41:57;;;;;;;1.45;1.10;;;;;;;;;;7306505;19;141286;-77
2023/09/26 03:44:24;;;;;;;1.58;0.80;;;;;;;;;;7306710;19;140739;-78
2023/09/26 03:46:52;;;;;;;0.70;0.70;;;;;;;;;;7305261;19;141578;-77
2023/09/26 03:49:19;;;;;;;1.42;1.10;;;;;;;;;;7306269;19;142398;-78
2023/09/26 03:51:46;;;;;;;1.15;0.93;;;;;;;;;;7306981;19;140572;-78
2023/09/26 03:54:14;;;;;;;1.10;1.00;;;;;;;;;;7306215;19;140609;-77
2023/09/26 03:56:41;;;;;;;0.80;0.80;;;;;;;;;;7306236;19;140544;-78
2023/09/26 03:59:08;;;;;;;1.20;1.00;;;;;;;;;;7305826;19;140774;-78
2023/09/26 04:01:35;;;;;;;1.05;0.95;;;;;;;;;;7306186;19;140681;-78
2023/09/26 04:04:02;;;;;;;1.00;0.95;;;;;;;;;;7306449;19;140755;-78
2023/09/26 04:06:31;;;;;;;1.48;1.10;;;;;;;;;;7306251;19;141291;-78
2023/09/26 04:08:58;;;;;;;0.70;0.70;;;;;;;;;;7304614;19;141652;-77
2023/09/26 04:11:25;;;;;;;0.93;0.90;;;;;;;;;;7304230;19;140530;-77
2023/09/26 04:13:52;;;;;;;2.08;1.15;;;;;;;;;;7305498;19;140477;-77
2023/09/26 04:16:19;;;;;;;0.73;0.70;;;;;;;;;;7304393;19;141105;-75
2023/09/26 04:18:46;;;;;;;1.60;1.17;;;;;;;;;;7305511;19;141595;-78
2023/09/26 04:21:13;;;;;;;1.05;0.90;;;;;;;;;;7304374;19;140452;-77
2023/09/26 04:23:41;;;;;;;1.10;0.80;;;;;;;;;;7313792;19;140469;-76
2023/09/26 04:26:14;;;;;;;1.00;0.90;;;;;;;;;;7309185;19;140852;-77
2023/09/26 04:28:56;;;;;;;1.15;1.02;;;;;;;;;;7313512;19;141317;-79
2023/09/26 04:31:33;;;;;;;1.45;1.00;;;;;;;;;;7304618;19;141009;-79
2023/09/26 04:34:00;;;;;;;1.10;0.80;;;;;;;;;;7305572;19;140614;-79
2023/09/26 04:36:29;;;;;;;1.05;0.90;;;;;;;;;;7304586;19;141023;-76
2023/09/26 04:38:56;;;;;;;1.52;1.08;;;;;;;;;;7306602;19;140698;-76
2023/09/26 04:41:24;;;;;;;2.03;1.00;;;;;;;;;;7305417;19;140848;-76
2023/09/26 04:43:51;;;;;;;1.17;0.90;;;;;;;;;;7302284;19;140645;-77
2023/09/26 04:46:18;;;;;;;1.00;0.90;;;;;;;;;;7304355;19;141115;-75
2023/09/26 04:48:46;;;;;;;1.00;0.90;;;;;;;;;;7304222;19;141049;-75
2023/09/26 04:51:14;;;;;;;1.10;1.00;;;;;;;;;;7304314;19;140495;-79
2023/09/26 04:53:41;;;;;;;0.98;0.93;;;;;;;;;;7304591;19;140744;-77
2023/09/26 04:56:08;;;;;;;1.10;0.90;;;;;;;;;;7304370;19;142003;-77
2023/09/26 04:58:35;;;;;;;1.40;0.90;;;;;;;;;;7303746;19;140791;-78
2023/09/26 05:01:13;;;;;;;1.63;1.10;;;;;;;;;;7305077;19;140455;-89
2023/09/26 05:03:41;;;;;;;1.13;1.00;;;;;;;;;;7305234;19;140906;-74
2023/09/26 05:06:08;;;;;;;2.40;1.10;;;;;;;;;;7303576;19;142017;-71
2023/09/26 05:08:36;;;;;;;2.08;1.02;;;;;;;;;;7303466;19;142001;-73
2023/09/26 05:11:03;;;;;;;2.40;1.13;;;;;;;;;;7303776;19;140605;-75
2023/09/26 05:13:30;;;;;;;1.45;1.10;;;;;;;;;;7301717;19;140718;-80
2023/09/26 05:15:57;;;;;;;1.33;1.10;;;;;;;;;;7304319;19;141051;-79
2023/09/26 05:18:24;;;;;;;1.30;0.93;;;;;;;;;;7303558;19;142792;-78
2023/09/26 05:20:52;;;;;;;1.45;0.95;;;;;;;;;;7304344;19;140729;-78
2023/09/26 05:23:19;;;;;;;1.10;1.00;;;;;;;;;;7303930;19;141410;-79
2023/09/26 05:25:46;;;;;;;1.13;0.82;;;;;;;;;;7302917;19;140548;-79
2023/09/26 05:28:13;;;;;;;1.67;1.02;;;;;;;;;;7301808;19;141290;-78
2023/09/26 05:30:41;;;;;;;1.00;0.90;;;;;;;;;;7304346;19;140483;-79
2023/09/26 05:33:08;;;;;;;1.02;0.93;;;;;;;;;;7303807;19;140368;-84
2023/09/26 05:35:36;;;;;;;3.13;1.30;;;;;;;;;;7304451;19;141055;-81
2023/09/26 05:38:03;;;;;;;2.15;1.23;;;;;;;;;;7303701;19;142025;-81
2023/09/26 05:40:30;;;;;;;2.03;1.52;;;;;;;;;;7300515;19;140841;-76
2023/09/26 05:42:57;;;;;;;3.33;1.20;;;;;;;;;;7302787;19;140887;-74
2023/09/26 05:45:24;;;;;;;3.28;1.48;;;;;;;;;;7302952;19;141013;-74
2023/09/26 05:47:52;;;;;;;4.70;1.30;;;;;;;;;;7302442;19;140762;-73
2023/09/26 05:50:19;;;;;;;2.85;1.23;;;;;;;;;;7302355;19;142711;-72
2023/09/26 05:52:46;;;;;;;2.80;1.65;;;;;;;;;;7303144;19;140683;-72
2023/09/26 05:55:13;;;;;;;3.20;1.27;;;;;;;;;;7302533;19;140986;-73
2023/09/26 05:57:40;;;;;;;3.80;1.40;;;;;;;;;;7304375;19;141860;-74
2023/09/26 06:00:12;;;;;;;1.27;1.15;;;;;;;;;;7302867;19;140570;-73
2023/09/26 06:02:40;;;;;;;1.88;1.20;;;;;;;;;;7302209;19;141917;-74
2023/09/26 06:05:07;;;;;;;1.38;1.25;;;;;;;;;;7302411;19;140936;-73
2023/09/26 06:07:34;;;;;;;2.08;1.55;;;;;;;;;;7302114;19;142848;-73
2023/09/26 06:10:02;;;;;;;1.73;1.13;;;;;;;;;;7300281;19;140807;-73
2023/09/26 06:12:36;;;;;;;1.58;1.25;;;;;;;;;;7302032;19;140721;-74
2023/09/26 06:15:05;;;;;;;1.52;1.30;;;;;;;;;;7304121;19;140477;-74
2023/09/26 06:17:36;;;;;;;1.13;1.00;;;;;;;;;;7301221;19;142717;-74
2023/09/26 06:20:10;;;;;;;1.80;1.33;;;;;;;;;;7302339;19;140515;-74
2023/09/26 06:22:37;;;;;;;1.73;1.17;;;;;;;;;;7302370;19;140693;-74
2023/09/26 06:25:04;;;;;;;2.17;1.23;;;;;;;;;;7301620;19;141221;-74
2023/09/26 06:27:38;;;;;;;2.92;1.35;;;;;;;;;;7301903;19;141655;-72
2023/09/26 06:30:05;;;;;;;1.73;1.55;;;;;;;;;;7299240;19;140409;-73
2023/09/26 06:32:35;;;;;;;2.47;1.20;;;;;;;;;;7301477;19;140720;-74
2023/09/26 06:35:02;;;;;;;2.63;1.20;;;;;;;;;;7300922;19;141301;-74
2023/09/26 06:37:29;;;;;;;1.83;1.40;;;;;;;;;;7300639;19;142571;-72
2023/09/26 06:40:00;;;;;;;1.52;1.20;;;;;;;;;;7302093;19;140580;-73
2023/09/26 06:42:27;;;;;;;2.53;1.40;;;;;;;;;;7300834;19;140503;-74
2023/09/26 06:44:54;;;;;;;1.60;1.15;;;;;;;;;;7301352;19;141078;-73
2023/09/26 06:47:24;;;;;;;1.33;1.00;;;;;;;;;;7298881;19;141825;-73
2023/09/26 06:49:52;;;;;;;2.67;1.40;;;;;;;;;;7299353;19;140929;-74
2023/09/26 06:52:20;;;;;;;1.92;1.25;;;;;;;;;;7297566;19;140786;-74
2023/09/26 06:54:47;;;;;;;1.73;1.13;;;;;;;;;;7300571;19;141602;-73
2023/09/26 06:57:17;;;;;;;2.25;1.20;;;;;;;;;;7300016;19;141870;-74
2023/09/26 06:59:49;;;;;;;1.55;1.30;;;;;;;;;;7300546;19;140546;-73
2023/09/26 07:02:16;;;;;;;1.73;1.15;;;;;;;;;;7299996;19;140628;-73
2023/09/26 07:04:44;;;;;;;1.67;1.17;;;;;;;;;;7300545;19;140930;-75
2023/09/26 07:07:14;;;;;;;1.42;1.27;;;;;;;;;;7298182;19;141920;-75
2023/09/26 07:09:41;;;;;;;1.75;1.10;;;;;;;;;;7300487;19;140731;-74
2023/09/26 07:12:08;;;;;;;1.35;1.00;;;;;;;;;;7300174;19;140718;-76
2023/09/26 07:14:37;;;;;;;1.48;1.00;;;;;;;;;;7299639;19;141507;-76
2023/09/26 07:17:04;;;;;;;1.98;0.90;;;;;;;;;;7299141;19;141881;-76
2023/09/26 07:19:32;;;;;;;1.48;1.10;;;;;;;;;;7299501;19;140534;-74
2023/09/26 07:21:59;;;;;;;1.38;1.00;;;;;;;;;;7300461;19;140535;-75
2023/09/26 07:24:26;;;;;;;1.30;1.10;;;;;;;;;;7299706;19;141158;-74
2023/09/26 07:27:13;;;;;;;2.35;1.40;;;;;;;;;;7298788;19;144285;-76
2023/09/26 07:29:43;;;;;;;2.08;1.13;;;;;;;;;;7299092;19;140499;-76
2023/09/26 07:32:11;;;;;;;1.40;1.17;;;;;;;;;;7299783;19;140614;-75
2023/09/26 07:34:38;;;;;;;1.17;1.08;;;;;;;;;;7298919;19;141295;-75
2023/09/26 07:37:05;;;;;;;1.17;0.93;;;;;;;;;;7299708;19;140800;-75
2023/09/26 07:39:32;;;;;;;2.25;1.30;;;;;;;;;;7297217;19;140622;-74
2023/09/26 07:41:59;;;;;;;1.10;1.00;;;;;;;;;;7299829;19;140832;-76
2023/09/26 07:44:26;;;;;;;1.20;1.10;;;;;;;;;;7298701;19;141780;-75
2023/09/26 07:46:53;;;;;;;2.53;1.00;;;;;;;;;;7298361;19;142192;-76
2023/09/26 07:49:20;;;;;;;1.73;1.10;;;;;;;;;;7299474;19;140621;-78
2023/09/26 07:51:48;;;;;;;2.00;1.05;;;;;;;;;;7298804;19;140951;-75
2023/09/26 07:54:15;;;;;;;1.10;1.00;;;;;;;;;;7298200;19;141920;-75
2023/09/26 07:56:42;;;;;;;1.52;1.00;;;;;;;;;;7298095;19;142234;-77
2023/09/26 07:59:09;;;;;;;2.13;1.30;;;;;;;;;;7296349;19;140603;-73
2023/09/26 08:01:37;;;;;;;1.17;1.00;;;;;;;;;;7299484;19;140760;-78
2023/09/26 08:04:04;;;;;;;1.10;1.00;;;;;;;;;;7302746;19;140968;-76
2023/09/26 08:06:31;;;;;;;1.65;0.95;;;;;;;;;;7307910;19;142016;-76
2023/09/26 08:09:01;;;;;;;1.10;1.00;;;;;;;;;;7306330;19;140634;-78
2023/09/26 08:11:28;;;;;;;1.07;0.97;;;;;;;;;;7305564;19;140853;-77
2023/09/26 08:13:56;;;;;;;1.77;1.15;;;;;;;;;;7303957;19;141822;-78
2023/09/26 08:16:23;;;;;;;1.55;1.20;;;;;;;;;;7304565;19;140676;-77
2023/09/26 08:18:51;;;;;;;1.23;0.90;;;;;;;;;;7305507;19;140700;-79
2023/09/26 08:21:18;;;;;;;1.05;0.93;;;;;;;;;;7304890;19;140611;-76
2023/09/26 08:23:45;;;;;;;1.20;1.10;;;;;;;;;;7303545;19;141098;-77
2023/09/26 08:26:12;;;;;;;1.10;1.00;;;;;;;;;;7303525;19;142165;-77
2023/09/26 08:28:39;;;;;;;1.23;1.10;;;;;;;;;;7304195;19;140867;-78
2023/09/26 08:31:14;;;;;;;1.30;1.05;;;;;;;;;;7304176;19;140658;-77
2023/09/26 08:33:45;;;;;;;1.05;0.90;;;;;;;;;;7304490;19;141667;-77
2023/09/26 08:36:13;;;;;;;1.50;1.00;;;;;;;;;;7303917;19;142091;-76
2023/09/26 08:38:40;;;;;;;0.90;0.90;;;;;;;;;;7304033;19;140853;-78
2023/09/26 08:41:08;;;;;;;1.48;1.20;;;;;;;;;;7305561;19;140718;-77
2023/09/26 08:43:35;;;;;;;1.63;1.02;;;;;;;;;;7304220;19;141099;-76
2023/09/26 08:46:04;;;;;;;0.82;0.82;;;;;;;;;;7304951;19;141796;-78
2023/09/26 08:48:35;;;;;;;1.35;0.80;;;;;;;;;;7304813;19;140846;-77
2023/09/26 08:51:03;;;;;;;0.82;0.82;;;;;;;;;;7304643;19;140774;-77
2023/09/26 08:53:30;;;;;;;1.00;0.90;;;;;;;;;;7304659;19;142284;-77
2023/09/26 08:55:57;;;;;;;1.60;1.20;;;;;;;;;;7303330;19;142585;-76
2023/09/26 08:58:25;;;;;;;1.15;1.00;;;;;;;;;;7304268;19;140865;-76
2023/09/26 09:00:52;;;;;;;1.13;1.00;;;;;;;;;;7303673;19;140804;-76
2023/09/26 09:03:19;;;;;;;1.38;1.00;;;;;;;;;;7303484;19;141101;-77
2023/09/26 09:05:46;;;;;;;1.20;1.10;;;;;;;;;;7301892;19;142240;-76
2023/09/26 09:08:20;;;;;;;1.20;1.00;;;;;;;;;;7302147;19;140791;-77
2023/09/26 09:10:54;;;;;;;1.58;1.15;;;;;;;;;;7303309;19;140599;-77
2023/09/26 09:13:26;;;;;;;2.15;1.10;;;;;;;;;;7302392;19;141370;-75
2023/09/26 09:16:09;;;;;;;1.17;1.08;;;;;;;;;;7300746;19;141970;-76
2023/09/26 09:18:41;;;;;;;1.25;1.02;;;;;;;;;;7303094;19;140712;-76
2023/09/26 09:21:30;;;;;;;1.27;1.00;;;;;;;;;;7302337;19;140798;-77
2023/09/26 09:23:58;;;;;;;1.27;1.15;;;;;;;;;;7301116;19;140884;-77
2023/09/26 09:26:31;;;;;;;2.45;0.93;;;;;;;;;;7303463;19;140843;-76
2023/09/26 09:29:15;;;;;;;1.67;1.20;;;;;;;;;;7301199;19;140602;-76
2023/09/26 09:31:45;;;;;;;1.23;1.05;;;;;;;;;;7303130;19;140582;-76
2023/09/26 09:34:15;;;;;;;1.27;1.10;;;;;;;;;;7298595;19;141921;-75
2023/09/26 09:36:44;;;;;;;1.13;1.00;;;;;;;;;;7301611;19;141161;-75
2023/09/26 09:39:12;;;;;;;0.93;0.90;;;;;;;;;;7301931;19;140465;-76
2023/09/26 09:41:39;;;;;;;1.05;1.00;;;;;;;;;;7302305;19;140572;-77
2023/09/26 09:44:06;;;;;;;1.30;1.00;;;;;;;;;;7300434;19;142012;-76
2023/09/26 09:46:35;;;;;;;1.20;0.98;;;;;;;;;;7299358;19;141046;-76
2023/09/26 09:49:03;;;;;;;1.80;1.20;;;;;;;;;;7302807;19;140605;-76
2023/09/26 09:51:31;;;;;;;1.55;1.10;;;;;;;;;;7300940;19;140520;-77
2023/09/26 09:54:00;;;;;;;0.90;0.80;;;;;;;;;;7301330;19;141178;-78
2023/09/26 09:56:33;;;;;;;1.30;1.02;;;;;;;;;;7301818;19;142829;-77
2023/09/26 09:59:05;;;;;;;1.20;1.10;;;;;;;;;;7300055;19;140846;-78
2023/09/26 10:01:35;;;;;;;1.55;1.13;;;;;;;;;;7299096;19;140702;-76
2023/09/26 10:04:03;;;;;;;1.98;1.13;;;;;;;;;;7302078;19;140985;-78
2023/09/26 10:06:30;;;;;;;1.65;1.20;;;;;;;;;;7299268;19;140871;-77
2023/09/26 10:08:58;;;;;;;1.40;1.00;;;;;;;;;;7300547;19;140647;-77
2023/09/26 10:11:26;;;;;;;1.35;1.00;;;;;;;;;;7300825;19;140729;-77
2023/09/26 10:13:53;;;;;;;1.52;1.20;;;;;;;;;;7299202;19;141849;-73
2023/09/26 10:16:20;;;;;;;1.05;0.90;;;;;;;;;;7299597;19;141746;-74
2023/09/26 10:18:49;;;;;;;1.73;1.10;;;;;;;;;;7301524;19;140649;-75
2023/09/26 10:21:28;;;;;;;2.25;1.08;;;;;;;;;;7301551;19;140463;-74
2023/09/26 10:24:19;;;;;;;1.80;1.00;;;;;;;;;;7301496;19;141593;-73
2023/09/26 10:26:47;;;;;;;2.00;1.20;;;;;;;;;;7298157;19;142154;-73
2023/09/26 10:29:14;;;;;;;1.30;1.20;;;;;;;;;;7300663;19;140541;-73
2023/09/26 10:31:48;;;;;;;1.30;1.00;;;;;;;;;;7301445;19;141013;-73
2023/09/26 10:34:15;;;;;;;2.10;1.35;;;;;;;;;;7300702;19;141053;-73
2023/09/26 10:36:43;;;;;;;2.58;1.30;;;;;;;;;;7301270;19;142540;-73
2023/09/26 10:39:10;;;;;;;3.78;1.20;;;;;;;;;;7300637;19;140622;-74
2023/09/26 10:41:38;;;;;;;1.75;1.23;;;;;;;;;;7299541;19;140749;-73
2023/09/26 10:44:25;;;;;;;1.50;1.35;;;;;;;;;;7297490;19;144053;-74
2023/09/26 10:46:53;;;;;;;1.08;1.00;;;;;;;;;;7300539;19;142447;-75
2023/09/26 10:49:28;;;;;;;2.25;1.35;;;;;;;;;;7298148;19;140557;-81
2023/09/26 10:51:56;;;;;;;1.10;1.00;;;;;;;;;;7299442;19;140545;-77
2023/09/26 10:54:23;;;;;;;1.60;1.25;;;;;;;;;;7300372;19;141099;-76
2023/09/26 10:56:53;;;;;;;1.45;1.30;;;;;;;;;;7297322;19;142161;-77
2023/09/26 10:59:23;;;;;;;2.17;1.40;;;;;;;;;;7299429;19;140802;-77
2023/09/26 11:01:53;;;;;;;1.87;1.13;;;;;;;;;;7298246;19;143370;-77
2023/09/26 11:04:20;;;;;;;1.38;1.20;;;;;;;;;;7297839;19;142751;-73
2023/09/26 11:06:48;;;;;;;1.67;1.20;;;;;;;;;;7301001;19;142849;-75
2023/09/26 11:09:18;;;;;;;2.42;1.40;;;;;;;;;;7298609;19;141271;-74
2023/09/26 11:11:45;;;;;;;1.63;1.20;;;;;;;;;;7300590;19;140632;-75
2023/09/26 11:14:13;;;;;;;2.22;1.20;;;;;;;;;;7299919;19;140736;-77
2023/09/26 11:16:43;;;;;;;1.53;1.43;;;;;;;;;;7299063;19;143405;-76
2023/09/26 11:19:16;;;;;;;1.92;1.38;;;;;;;;;;7297658;19;140431;-76
2023/09/26 11:21:43;;;;;;;1.65;1.30;;;;;;;;;;7299384;19;141634;-77
2023/09/26 11:24:27;;;;;;;1.85;1.45;;;;;;;;;;7298361;19;141560;-76
2023/09/26 11:26:58;;;;;;;1.60;1.50;;;;;;;;;;7295693;19;141406;-76
2023/09/26 11:29:25;;;;;;;1.35;1.13;;;;;;;;;;7296639;19;140922;-77
2023/09/26 11:31:53;;;;;;;2.55;1.60;;;;;;;;;;7298683;19;140678;-78
2023/09/26 11:34:20;;;;;;;1.67;1.50;;;;;;;;;;7296779;19;143886;-77
2023/09/26 11:36:51;;;;;;;2.72;1.63;;;;;;;;;;7299530;19;142847;-77
2023/09/26 11:39:22;;;;;;;4.05;1.45;;;;;;;;;;7304393;19;140535;-78
2023/09/26 11:42:02;;;;;;;2.08;1.58;;;;;;;;;;7306867;19;140591;-76
2023/09/26 11:44:29;;;;;;;;;;;;;;;;;;7305323;19;141152;-78
2023/09/26 11:46:57;;;;;;;2.15;1.40;;;;;;;;;;7304519;19;140813;-77
2023/09/26 11:49:24;;;;;;;2.78;1.45;;;;;;;;;;7306300;19;142242;-76
2023/09/26 11:51:52;;;;;;;2.10;1.50;;;;;;;;;;7304851;19;140973;-77
2023/09/26 11:54:19;;;;;;;2.22;1.50;;;;;;;;;;7304546;19;140998;-75
2023/09/26 11:56:46;;;;;;;1.60;1.30;;;;;;;;;;7305281;19;142771;-77
2023/09/26 11:59:14;;;;;;;2.33;1.60;;;;;;;;;;7305158;19;140428;-75
2023/09/26 12:01:41;;;;;;;1.60;1.50;;;;;;;;;;7302788;19;142115;-78
2023/09/26 12:04:14;;;;;;;3.08;1.60;;;;;;;;;;7305931;19;140918;-78
2023/09/26 12:06:41;;;;;;;1.73;1.50;;;;;;;;;;7303559;19;144397;-79
2023/09/26 12:09:18;;;;;;;2.03;1.45;;;;;;;;;;7304766;19;140734;-78
2023/09/26 12:11:48;;;;;;;2.90;1.65;;;;;;;;;;7305359;19;140791;-76
2023/09/26 12:14:16;;;;;;;2.27;1.40;;;;;;;;;;7303798;19;140985;-77
2023/09/26 12:16:50;;;;;;;2.10;1.50;;;;;;;;;;7302565;19;142090;-78
2023/09/26 12:19:19;;;;;;;3.47;1.75;;;;;;;;;;7305720;19;140404;-77
2023/09/26 12:21:47;;;;;;;2.13;1.48;;;;;;;;;;7305461;19;140796;-78
2023/09/26 12:24:14;;;;;;;2.50;1.67;;;;;;;;;;7304808;19;141345;-77
2023/09/26 12:26:45;;;;;;;2.55;1.73;;;;;;;;;;7304450;19;142037;-77
2023/09/26 12:29:16;;;;;;;2.13;1.65;;;;;;;;;;7305657;19;140661;-77
2023/09/26 12:31:43;;;;;;;1.90;1.30;;;;;;;;;;7304349;19;141202;-77
2023/09/26 12:34:11;;;;;;;2.05;1.50;;;;;;;;;;7304113;19;141128;-78
2023/09/26 12:36:39;;;;;;;2.90;1.52;;;;;;;;;;7305052;19;141547;-78
2023/09/26 12:39:07;;;;;;;2.67;1.50;;;;;;;;;;7303850;19;142132;-78
2023/09/26 12:41:34;;;;;;;3.05;1.60;;;;;;;;;;7303978;19;142087;-78
2023/09/26 12:44:01;;;;;;;3.10;1.80;;;;;;;;;;7304068;19;141161;-76
2023/09/26 12:46:28;;;;;;;1.85;1.70;;;;;;;;;;7304090;19;142029;-79
2023/09/26 12:48:55;;;;;;;1.92;1.50;;;;;;;;;;7303445;19;140563;-78
2023/09/26 12:51:22;;;;;;;2.97;1.60;;;;;;;;;;7303033;19;140778;-78
2023/09/26 12:53:50;;;;;;;3.08;1.83;;;;;;;;;;7304683;19;140472;-79
2023/09/26 12:56:17;;;;;;;2.70;1.70;;;;;;;;;;7303644;19;142527;-79
2023/09/26 12:58:44;;;;;;;2.35;1.60;;;;;;;;;;7303327;19;140690;-80
2023/09/26 13:01:11;;;;;;;2.90;1.65;;;;;;;;;;7304024;19;140579;-76
2023/09/26 13:03:39;;;;;;;2.92;1.60;;;;;;;;;;7302240;19;141493;-78
2023/09/26 13:06:06;;;;;;;2.42;1.65;;;;;;;;;;7303291;19;142568;-76
2023/09/26 13:08:33;;;;;;;2.72;1.50;;;;;;;;;;7303370;19;140804;-81
2023/09/26 13:11:00;;;;;;;2.65;1.52;;;;;;;;;;7302191;19;140842;-75
2023/09/26 13:13:29;;;;;;;2.10;1.60;;;;;;;;;;7302781;19;140619;-76
2023/09/26 13:15:57;;;;;;;2.33;1.55;;;;;;;;;;7301744;19;142423;-75
2023/09/26 13:18:24;;;;;;;1.70;1.50;;;;;;;;;;7304043;19;140504;-76
2023/09/26 13:20:51;;;;;;;3.03;1.42;;;;;;;;;;7304332;19;140637;-75
2023/09/26 13:23:18;;;;;;;3.28;1.85;;;;;;;;;;7303344;19;141138;-76
2023/09/26 13:25:45;;;;;;;2.90;1.50;;;;;;;;;;7312918;19;142495;-76
2023/09/26 13:28:13;;;;;;;3.13;1.50;;;;;;;;;;7303202;19;140402;-76
2023/09/26 13:30:41;;;;;;;1.83;1.30;;;;;;;;;;7300555;19;141012;-77
2023/09/26 13:33:08;;;;;;;3.83;1.98;;;;;;;;;;7299474;19;140721;-77
2023/09/26 13:35:35;;;;;;;4.45;1.70;;;;;;;;;;7300637;19;142561;-77
2023/09/26 13:38:02;;;;;;;4.57;1.92;;;;;;;;;;7303275;19;140638;-77
2023/09/26 13:40:31;;;;;;;4.97;2.05;;;;;;;;;;7302999;19;140728;-77
2023/09/26 13:42:58;;;;;;;3.85;2.10;;;;;;;;;;7300529;19;141898;-77
2023/09/26 13:45:25;;;;;;;5.78;2.28;;;;;;;;;;7299179;19;142198;-76
2023/09/26 13:47:52;;;;;;;2.33;1.90;;;;;;;;;;7301045;19;140896;-75
2023/09/26 13:50:19;;;;;;;3.88;2.10;;;;;;;;;;7300872;19;140625;-75
2023/09/26 13:52:46;;;;;;;1.77;1.60;;;;;;;;;;7300321;19;141412;-75
2023/09/26 13:55:14;;;;;;;3.25;1.77;;;;;;;;;;7300642;19;140798;-76
2023/09/26 13:57:44;;;;;;;4.50;1.90;;;;;;;;;;7302779;19;141058;-79
2023/09/26 14:00:12;;;;;;;3.35;1.95;;;;;;;;;;7299672;19;140652;-73
2023/09/26 14:02:39;;;;;;;3.65;2.15;;;;;;;;;;7301075;19;141929;-73
2023/09/26 14:05:07;;;;;;;5.05;2.10;;;;;;;;;;7301819;19;142345;-75
2023/09/26 14:07:39;;;;;;;3.00;2.15;;;;;;;;;;7299177;19;140823;-76
2023/09/26 14:10:06;;;;;;;3.78;2.13;;;;;;;;;;7299594;19;140541;-76
2023/09/26 14:12:33;;;;;;;3.50;2.10;;;;;;;;;;7299809;19;141249;-75
2023/09/26 14:15:00;;;;;;;4.38;2.03;;;;;;;;;;7300138;19;142690;-75
2023/09/26 14:17:27;;;;;;;3.90;1.90;;;;;;;;;;7301260;19;140679;-76
2023/09/26 14:19:55;;;;;;;4.65;2.25;;;;;;;;;;7300015;19;140840;-75
2023/09/26 14:22:22;;;;;;;4.80;2.20;;;;;;;;;;7300962;19;142192;-75
2023/09/26 14:24:49;;;;;;;3.55;2.17;;;;;;;;;;7300359;19;142415;-76
2023/09/26 14:27:18;;;;;;;4.10;2.17;;;;;;;;;;7300058;19;140927;-76
2023/09/26 14:29:46;;;;;;;3.78;2.10;;;;;;;;;;7301315;19;140681;-76
2023/09/26 14:32:12;;;;;;;4.80;2.20;;;;;;;;;;7300874;19;142533;-75
2023/09/26 14:34:40;;;;;;;4.30;2.40;;;;;;;;;;7300491;19;142178;-75
2023/09/26 14:37:07;;;;;;;4.57;2.47;;;;;;;;;;7301216;19;140655;-75